sensor_id;sensor_type;location;lat;lon;timestamp;P1;durP1;ratioP1;P2;durP2;ratioP2
68438;SDS011;55421;51.600;5.718;2023-03-03T00:00:44;31.90;;;15.50;;
68438;SDS011;55421;51.600;5.718;2023-03-03T00:03:22;36.40;;;16.30;;
68438;SDS011;55421;51.600;5.718;2023-03-03T00:05:50;34.20;;;15.70;;
68438;SDS011;55421;51.600;5.718;2023-03-03T00:08:18;32.60;;;15.50;;
68438;SDS011;55421;51.600;5.718;2023-03-03T00:10:46;32.10;;;16.40;;
68438;SDS011;55421;51.600;5.718;2023-03-03T00:13:19;33.00;;;16.30;;
68438;SDS011;55421;51.600;5.718;2023-03-03T00:15:50;35.10;;;17.20;;
68438;SDS011;55421;51.600;5.718;2023-03-03T00:18:24;34.60;;;16.50;;
68438;SDS011;55421;51.600;5.718;2023-03-03T00:20:59;34.60;;;15.30;;
68438;SDS011;55421;51.600;5.718;2023-03-03T00:23:37;31.80;;;15.20;;
68438;SDS011;55421;51.600;5.718;2023-03-03T00:26:17;36.30;;;16.60;;
68438;SDS011;55421;51.600;5.718;2023-03-03T00:28:49;37.40;;;17.50;;
68438;SDS011;55421;51.600;5.718;2023-03-03T00:31:22;33.90;;;16.20;;
68438;SDS011;55421;51.600;5.718;2023-03-03T00:34:24;34.70;;;15.60;;
68438;SDS011;55421;51.600;5.718;2023-03-03T00:36:56;35.30;;;15.50;;
68438;SDS011;55421;51.600;5.718;2023-03-03T00:39:35;34.90;;;16.70;;
68438;SDS011;55421;51.600;5.718;2023-03-03T00:42:16;34.40;;;16.00;;
68438;SDS011;55421;51.600;5.718;2023-03-03T00:44:54;35.10;;;16.00;;
68438;SDS011;55421;51.600;5.718;2023-03-03T00:47:26;32.80;;;15.30;;
68438;SDS011;55421;51.600;5.718;2023-03-03T00:52:43;31.90;;;15.20;;
68438;SDS011;55421;51.600;5.718;2023-03-03T00:55:18;33.20;;;17.00;;
68438;SDS011;55421;51.600;5.718;2023-03-03T00:57:45;31.60;;;14.60;;
68438;SDS011;55421;51.600;5.718;2023-03-03T01:00:12;31.50;;;15.00;;
68438;SDS011;55421;51.600;5.718;2023-03-03T01:02:39;30.60;;;14.90;;
68438;SDS011;55421;51.600;5.718;2023-03-03T01:05:05;31.00;;;14.80;;
68438;SDS011;55421;51.600;5.718;2023-03-03T01:07:32;34.30;;;16.30;;
68438;SDS011;55421;51.600;5.718;2023-03-03T01:09:58;32.70;;;15.90;;
68438;SDS011;55421;51.600;5.718;2023-03-03T01:12:25;35.00;;;15.20;;
68438;SDS011;55421;51.600;5.718;2023-03-03T01:14:51;33.50;;;15.20;;
68438;SDS011;55421;51.600;5.718;2023-03-03T01:17:20;31.40;;;15.50;;
68438;SDS011;55421;51.600;5.718;2023-03-03T01:19:46;33.40;;;16.10;;
68438;SDS011;55421;51.600;5.718;2023-03-03T01:22:12;33.70;;;15.80;;
68438;SDS011;55421;51.600;5.718;2023-03-03T01:24:41;32.30;;;14.80;;
68438;SDS011;55421;51.600;5.718;2023-03-03T01:27:07;32.80;;;14.60;;
68438;SDS011;55421;51.600;5.718;2023-03-03T01:29:33;33.60;;;15.30;;
68438;SDS011;55421;51.600;5.718;2023-03-03T01:32:00;31.00;;;14.80;;
68438;SDS011;55421;51.600;5.718;2023-03-03T01:34:26;33.60;;;15.50;;
68438;SDS011;55421;51.600;5.718;2023-03-03T01:36:53;30.40;;;13.30;;
68438;SDS011;55421;51.600;5.718;2023-03-03T01:39:19;31.00;;;13.50;;
68438;SDS011;55421;51.600;5.718;2023-03-03T01:41:46;27.80;;;13.60;;
68438;SDS011;55421;51.600;5.718;2023-03-03T01:44:15;28.20;;;13.50;;
68438;SDS011;55421;51.600;5.718;2023-03-03T01:46:50;33.90;;;15.50;;
68438;SDS011;55421;51.600;5.718;2023-03-03T01:49:22;31.60;;;12.80;;
68438;SDS011;55421;51.600;5.718;2023-03-03T01:52:00;34.10;;;14.90;;
68438;SDS011;55421;51.600;5.718;2023-03-03T01:54:35;29.50;;;13.50;;
68438;SDS011;55421;51.600;5.718;2023-03-03T01:57:24;33.00;;;15.80;;
68438;SDS011;55421;51.600;5.718;2023-03-03T01:59:56;31.10;;;14.20;;
68438;SDS011;55421;51.600;5.718;2023-03-03T02:02:26;33.10;;;14.60;;
68438;SDS011;55421;51.600;5.718;2023-03-03T02:04:53;31.30;;;14.30;;
68438;SDS011;55421;51.600;5.718;2023-03-03T02:07:22;31.60;;;14.50;;
68438;SDS011;55421;51.600;5.718;2023-03-03T02:12:33;34.90;;;15.30;;
68438;SDS011;55421;51.600;5.718;2023-03-03T02:17:44;32.60;;;14.80;;
68438;SDS011;55421;51.600;5.718;2023-03-03T02:20:32;31.40;;;14.20;;
68438;SDS011;55421;51.600;5.718;2023-03-03T02:23:19;32.00;;;13.80;;
68438;SDS011;55421;51.600;5.718;2023-03-03T02:26:08;32.40;;;15.70;;
68438;SDS011;55421;51.600;5.718;2023-03-03T02:28:36;32.80;;;14.40;;
68438;SDS011;55421;51.600;5.718;2023-03-03T02:33:43;31.80;;;14.00;;
68438;SDS011;55421;51.600;5.718;2023-03-03T02:36:23;28.80;;;13.50;;
68438;SDS011;55421;51.600;5.718;2023-03-03T02:39:14;30.80;;;14.60;;
68438;SDS011;55421;51.600;5.718;2023-03-03T02:44:40;30.20;;;13.80;;
68438;SDS011;55421;51.600;5.718;2023-03-03T02:47:07;30.40;;;14.30;;
68438;SDS011;55421;51.600;5.718;2023-03-03T02:49:35;32.10;;;13.90;;
68438;SDS011;55421;51.600;5.718;2023-03-03T02:52:05;37.90;;;15.50;;
68438;SDS011;55421;51.600;5.718;2023-03-03T02:54:35;40.20;;;14.50;;
68438;SDS011;55421;51.600;5.718;2023-03-03T02:57:03;35.90;;;15.60;;
68438;SDS011;55421;51.600;5.718;2023-03-03T02:59:30;33.40;;;14.20;;
68438;SDS011;55421;51.600;5.718;2023-03-03T03:01:57;33.60;;;14.90;;
68438;SDS011;55421;51.600;5.718;2023-03-03T03:04:24;32.70;;;13.80;;
68438;SDS011;55421;51.600;5.718;2023-03-03T03:06:53;30.20;;;13.70;;
68438;SDS011;55421;51.600;5.718;2023-03-03T03:09:22;32.70;;;14.00;;
68438;SDS011;55421;51.600;5.718;2023-03-03T03:11:50;34.80;;;13.90;;
68438;SDS011;55421;51.600;5.718;2023-03-03T03:14:17;33.30;;;14.50;;
68438;SDS011;55421;51.600;5.718;2023-03-03T03:16:44;36.70;;;15.80;;
68438;SDS011;55421;51.600;5.718;2023-03-03T03:19:10;36.40;;;14.00;;
68438;SDS011;55421;51.600;5.718;2023-03-03T03:21:37;34.10;;;14.10;;
68438;SDS011;55421;51.600;5.718;2023-03-03T03:24:04;29.70;;;13.10;;
68438;SDS011;55421;51.600;5.718;2023-03-03T03:26:31;33.60;;;14.70;;
68438;SDS011;55421;51.600;5.718;2023-03-03T03:28:57;31.20;;;13.80;;
68438;SDS011;55421;51.600;5.718;2023-03-03T03:31:25;38.60;;;15.10;;
68438;SDS011;55421;51.600;5.718;2023-03-03T03:33:52;35.80;;;14.90;;
68438;SDS011;55421;51.600;5.718;2023-03-03T03:36:18;31.20;;;13.70;;
68438;SDS011;55421;51.600;5.718;2023-03-03T03:38:45;31.70;;;13.80;;
68438;SDS011;55421;51.600;5.718;2023-03-03T03:41:12;36.40;;;15.80;;
68438;SDS011;55421;51.600;5.718;2023-03-03T03:43:39;32.70;;;14.40;;
68438;SDS011;55421;51.600;5.718;2023-03-03T03:46:06;32.70;;;13.70;;
68438;SDS011;55421;51.600;5.718;2023-03-03T03:48:33;32.00;;;14.00;;
68438;SDS011;55421;51.600;5.718;2023-03-03T03:51:00;33.10;;;13.60;;
68438;SDS011;55421;51.600;5.718;2023-03-03T03:53:27;32.80;;;14.60;;
68438;SDS011;55421;51.600;5.718;2023-03-03T03:55:53;31.50;;;14.50;;
68438;SDS011;55421;51.600;5.718;2023-03-03T03:58:20;35.10;;;14.60;;
68438;SDS011;55421;51.600;5.718;2023-03-03T04:00:47;30.30;;;13.70;;
68438;SDS011;55421;51.600;5.718;2023-03-03T04:03:14;26.80;;;12.70;;
68438;SDS011;55421;51.600;5.718;2023-03-03T04:05:40;31.10;;;14.80;;
68438;SDS011;55421;51.600;5.718;2023-03-03T04:08:07;33.80;;;15.00;;
68438;SDS011;55421;51.600;5.718;2023-03-03T04:10:34;29.30;;;13.50;;
68438;SDS011;55421;51.600;5.718;2023-03-03T04:13:00;31.50;;;14.20;;
68438;SDS011;55421;51.600;5.718;2023-03-03T04:15:27;29.50;;;13.50;;
68438;SDS011;55421;51.600;5.718;2023-03-03T04:17:53;34.60;;;15.20;;
68438;SDS011;55421;51.600;5.718;2023-03-03T04:20:20;33.90;;;15.00;;
68438;SDS011;55421;51.600;5.718;2023-03-03T04:22:46;34.20;;;15.10;;
68438;SDS011;55421;51.600;5.718;2023-03-03T04:25:14;35.80;;;14.90;;
68438;SDS011;55421;51.600;5.718;2023-03-03T04:27:42;29.40;;;14.40;;
68438;SDS011;55421;51.600;5.718;2023-03-03T04:30:11;28.80;;;13.60;;
68438;SDS011;55421;51.600;5.718;2023-03-03T04:32:39;30.00;;;13.30;;
68438;SDS011;55421;51.600;5.718;2023-03-03T04:35:06;33.00;;;13.80;;
68438;SDS011;55421;51.600;5.718;2023-03-03T04:37:34;29.80;;;13.20;;
68438;SDS011;55421;51.600;5.718;2023-03-03T04:40:03;26.40;;;11.70;;
68438;SDS011;55421;51.600;5.718;2023-03-03T04:42:30;29.10;;;11.40;;
68438;SDS011;55421;51.600;5.718;2023-03-03T04:44:57;30.20;;;13.00;;
68438;SDS011;55421;51.600;5.718;2023-03-03T04:47:24;34.10;;;14.30;;
68438;SDS011;55421;51.600;5.718;2023-03-03T04:49:51;31.00;;;12.30;;
68438;SDS011;55421;51.600;5.718;2023-03-03T04:52:18;30.80;;;12.60;;
68438;SDS011;55421;51.600;5.718;2023-03-03T04:54:44;33.40;;;12.30;;
68438;SDS011;55421;51.600;5.718;2023-03-03T04:57:11;32.70;;;12.50;;
68438;SDS011;55421;51.600;5.718;2023-03-03T04:59:37;35.10;;;14.00;;
68438;SDS011;55421;51.600;5.718;2023-03-03T05:02:03;34.00;;;13.20;;
68438;SDS011;55421;51.600;5.718;2023-03-03T05:04:30;32.50;;;12.70;;
68438;SDS011;55421;51.600;5.718;2023-03-03T05:06:58;31.40;;;13.20;;
68438;SDS011;55421;51.600;5.718;2023-03-03T05:09:26;34.70;;;13.70;;
68438;SDS011;55421;51.600;5.718;2023-03-03T05:11:52;33.30;;;13.90;;
68438;SDS011;55421;51.600;5.718;2023-03-03T05:14:19;34.30;;;13.70;;
68438;SDS011;55421;51.600;5.718;2023-03-03T05:16:46;42.70;;;14.30;;
68438;SDS011;55421;51.600;5.718;2023-03-03T05:19:12;34.60;;;14.50;;
68438;SDS011;55421;51.600;5.718;2023-03-03T05:21:39;34.10;;;14.10;;
68438;SDS011;55421;51.600;5.718;2023-03-03T05:24:12;37.00;;;14.20;;
68438;SDS011;55421;51.600;5.718;2023-03-03T05:26:39;40.40;;;14.90;;
68438;SDS011;55421;51.600;5.718;2023-03-03T05:29:07;41.70;;;15.10;;
68438;SDS011;55421;51.600;5.718;2023-03-03T05:31:34;38.10;;;13.50;;
68438;SDS011;55421;51.600;5.718;2023-03-03T05:34:01;39.60;;;14.30;;
68438;SDS011;55421;51.600;5.718;2023-03-03T05:36:29;39.20;;;15.00;;
68438;SDS011;55421;51.600;5.718;2023-03-03T05:38:56;37.90;;;13.20;;
68438;SDS011;55421;51.600;5.718;2023-03-03T05:41:22;37.80;;;14.70;;
68438;SDS011;55421;51.600;5.718;2023-03-03T05:43:49;32.50;;;12.50;;
68438;SDS011;55421;51.600;5.718;2023-03-03T05:46:15;35.60;;;14.10;;
68438;SDS011;55421;51.600;5.718;2023-03-03T05:48:42;34.10;;;12.90;;
68438;SDS011;55421;51.600;5.718;2023-03-03T05:51:08;31.40;;;12.90;;
68438;SDS011;55421;51.600;5.718;2023-03-03T05:53:35;34.60;;;13.20;;
68438;SDS011;55421;51.600;5.718;2023-03-03T05:56:02;31.80;;;12.90;;
68438;SDS011;55421;51.600;5.718;2023-03-03T05:58:29;33.00;;;13.10;;
68438;SDS011;55421;51.600;5.718;2023-03-03T06:00:55;33.70;;;13.60;;
68438;SDS011;55421;51.600;5.718;2023-03-03T06:03:22;34.50;;;12.80;;
68438;SDS011;55421;51.600;5.718;2023-03-03T06:05:48;35.40;;;13.40;;
68438;SDS011;55421;51.600;5.718;2023-03-03T06:08:15;31.00;;;12.80;;
68438;SDS011;55421;51.600;5.718;2023-03-03T06:10:41;32.30;;;13.20;;
68438;SDS011;55421;51.600;5.718;2023-03-03T06:13:08;33.50;;;13.70;;
68438;SDS011;55421;51.600;5.718;2023-03-03T06:15:34;35.60;;;13.60;;
68438;SDS011;55421;51.600;5.718;2023-03-03T06:18:01;33.00;;;13.10;;
68438;SDS011;55421;51.600;5.718;2023-03-03T06:20:27;35.00;;;13.80;;
68438;SDS011;55421;51.600;5.718;2023-03-03T06:22:54;32.30;;;13.30;;
68438;SDS011;55421;51.600;5.718;2023-03-03T06:25:21;33.50;;;13.60;;
68438;SDS011;55421;51.600;5.718;2023-03-03T06:27:47;40.20;;;14.80;;
68438;SDS011;55421;51.600;5.718;2023-03-03T06:30:14;33.70;;;13.40;;
68438;SDS011;55421;51.600;5.718;2023-03-03T06:32:40;32.20;;;12.80;;
68438;SDS011;55421;51.600;5.718;2023-03-03T06:35:07;32.80;;;12.30;;
68438;SDS011;55421;51.600;5.718;2023-03-03T06:37:35;33.20;;;12.60;;
68438;SDS011;55421;51.600;5.718;2023-03-03T06:40:03;35.90;;;14.50;;
68438;SDS011;55421;51.600;5.718;2023-03-03T06:42:30;32.30;;;13.40;;
68438;SDS011;55421;51.600;5.718;2023-03-03T06:44:57;33.60;;;13.10;;
68438;SDS011;55421;51.600;5.718;2023-03-03T06:47:23;27.80;;;12.00;;
68438;SDS011;55421;51.600;5.718;2023-03-03T06:49:50;28.50;;;12.30;;
68438;SDS011;55421;51.600;5.718;2023-03-03T06:52:19;31.60;;;13.50;;
68438;SDS011;55421;51.600;5.718;2023-03-03T06:54:52;37.40;;;14.00;;
68438;SDS011;55421;51.600;5.718;2023-03-03T06:57:29;32.30;;;14.00;;
68438;SDS011;55421;51.600;5.718;2023-03-03T07:00:23;38.20;;;14.70;;
68438;SDS011;55421;51.600;5.718;2023-03-03T07:03:07;32.80;;;13.00;;
68438;SDS011;55421;51.600;5.718;2023-03-03T07:05:37;30.70;;;13.20;;
68438;SDS011;55421;51.600;5.718;2023-03-03T07:08:18;36.40;;;14.60;;
68438;SDS011;55421;51.600;5.718;2023-03-03T07:10:46;31.10;;;12.70;;
68438;SDS011;55421;51.600;5.718;2023-03-03T07:13:20;30.70;;;13.00;;
68438;SDS011;55421;51.600;5.718;2023-03-03T07:15:52;30.50;;;12.70;;
68438;SDS011;55421;51.600;5.718;2023-03-03T07:18:36;27.30;;;12.60;;
68438;SDS011;55421;51.600;5.718;2023-03-03T07:21:17;34.00;;;14.10;;
68438;SDS011;55421;51.600;5.718;2023-03-03T07:24:24;30.10;;;12.00;;
68438;SDS011;55421;51.600;5.718;2023-03-03T07:27:10;28.80;;;12.50;;
68438;SDS011;55421;51.600;5.718;2023-03-03T07:30:16;30.30;;;12.20;;
68438;SDS011;55421;51.600;5.718;2023-03-03T07:32:52;27.80;;;12.80;;
68438;SDS011;55421;51.600;5.718;2023-03-03T07:38:02;26.60;;;12.70;;
68438;SDS011;55421;51.600;5.718;2023-03-03T07:40:36;28.10;;;12.90;;
68438;SDS011;55421;51.600;5.718;2023-03-03T07:43:36;29.70;;;12.20;;
68438;SDS011;55421;51.600;5.718;2023-03-03T07:46:21;27.80;;;12.80;;
68438;SDS011;55421;51.600;5.718;2023-03-03T07:48:51;27.80;;;11.80;;
68438;SDS011;55421;51.600;5.718;2023-03-03T07:51:36;31.30;;;13.60;;
68438;SDS011;55421;51.600;5.718;2023-03-03T07:54:30;23.70;;;11.00;;
68438;SDS011;55421;51.600;5.718;2023-03-03T07:59:36;29.60;;;12.50;;
68438;SDS011;55421;51.600;5.718;2023-03-03T08:02:15;28.90;;;12.50;;
68438;SDS011;55421;51.600;5.718;2023-03-03T08:04:55;35.90;;;14.50;;
68438;SDS011;55421;51.600;5.718;2023-03-03T08:07:22;28.50;;;12.30;;
68438;SDS011;55421;51.600;5.718;2023-03-03T08:09:51;23.20;;;11.50;;
68438;SDS011;55421;51.600;5.718;2023-03-03T08:17:47;28.40;;;12.00;;
68438;SDS011;55421;51.600;5.718;2023-03-03T08:20:40;31.40;;;12.30;;
68438;SDS011;55421;51.600;5.718;2023-03-03T08:23:10;26.60;;;11.20;;
68438;SDS011;55421;51.600;5.718;2023-03-03T08:25:38;22.70;;;10.00;;
68438;SDS011;55421;51.600;5.718;2023-03-03T08:28:05;24.70;;;11.00;;
68438;SDS011;55421;51.600;5.718;2023-03-03T08:30:31;27.90;;;11.40;;
68438;SDS011;55421;51.600;5.718;2023-03-03T08:32:57;24.80;;;11.10;;
68438;SDS011;55421;51.600;5.718;2023-03-03T08:35:24;26.10;;;10.70;;
68438;SDS011;55421;51.600;5.718;2023-03-03T08:37:50;26.50;;;10.90;;
68438;SDS011;55421;51.600;5.718;2023-03-03T08:40:17;20.10;;;9.30;;
68438;SDS011;55421;51.600;5.718;2023-03-03T08:42:43;26.20;;;10.70;;
68438;SDS011;55421;51.600;5.718;2023-03-03T08:45:10;21.70;;;10.80;;
68438;SDS011;55421;51.600;5.718;2023-03-03T08:47:37;26.80;;;11.00;;
68438;SDS011;55421;51.600;5.718;2023-03-03T08:50:22;24.70;;;10.40;;
68438;SDS011;55421;51.600;5.718;2023-03-03T08:52:51;27.80;;;11.00;;
68438;SDS011;55421;51.600;5.718;2023-03-03T08:55:17;24.40;;;10.70;;
68438;SDS011;55421;51.600;5.718;2023-03-03T08:57:44;25.40;;;11.30;;
68438;SDS011;55421;51.600;5.718;2023-03-03T09:00:13;24.90;;;12.10;;
68438;SDS011;55421;51.600;5.718;2023-03-03T09:02:42;31.20;;;13.60;;
68438;SDS011;55421;51.600;5.718;2023-03-03T09:05:09;26.60;;;11.90;;
68438;SDS011;55421;51.600;5.718;2023-03-03T09:07:37;23.90;;;11.60;;
68438;SDS011;55421;51.600;5.718;2023-03-03T09:10:05;28.40;;;11.80;;
68438;SDS011;55421;51.600;5.718;2023-03-03T09:12:35;24.50;;;11.20;;
68438;SDS011;55421;51.600;5.718;2023-03-03T09:15:31;27.30;;;13.00;;
68438;SDS011;55421;51.600;5.718;2023-03-03T09:18:20;29.00;;;11.60;;
68438;SDS011;55421;51.600;5.718;2023-03-03T09:20:52;27.20;;;12.40;;
68438;SDS011;55421;51.600;5.718;2023-03-03T09:23:37;21.30;;;10.10;;
68438;SDS011;55421;51.600;5.718;2023-03-03T09:26:29;20.10;;;9.50;;
68438;SDS011;55421;51.600;5.718;2023-03-03T09:29:18;20.30;;;10.60;;
68438;SDS011;55421;51.600;5.718;2023-03-03T09:34:40;21.40;;;10.10;;
68438;SDS011;55421;51.600;5.718;2023-03-03T09:37:28;21.20;;;10.30;;
68438;SDS011;55421;51.600;5.718;2023-03-03T09:39:59;23.60;;;10.00;;
68438;SDS011;55421;51.600;5.718;2023-03-03T09:42:50;18.90;;;9.50;;
68438;SDS011;55421;51.600;5.718;2023-03-03T09:45:50;20.30;;;10.20;;
68438;SDS011;55421;51.600;5.718;2023-03-03T09:51:59;15.90;;;7.90;;
68438;SDS011;55421;51.600;5.718;2023-03-03T09:54:54;17.80;;;8.40;;
68438;SDS011;55421;51.600;5.718;2023-03-03T09:58:03;19.70;;;8.80;;
68438;SDS011;55421;51.600;5.718;2023-03-03T10:06:26;19.10;;;9.40;;
68438;SDS011;55421;51.600;5.718;2023-03-03T10:09:38;18.40;;;8.60;;
68438;SDS011;55421;51.600;5.718;2023-03-03T10:12:21;20.60;;;8.50;;
68438;SDS011;55421;51.600;5.718;2023-03-03T10:17:48;19.70;;;9.80;;
68438;SDS011;55421;51.600;5.718;2023-03-03T10:23:37;21.00;;;10.50;;
68438;SDS011;55421;51.600;5.718;2023-03-03T10:32:35;19.50;;;10.10;;
68438;SDS011;55421;51.600;5.718;2023-03-03T10:35:21;22.30;;;10.50;;
68438;SDS011;55421;51.600;5.718;2023-03-03T10:38:33;21.00;;;10.10;;
68438;SDS011;55421;51.600;5.718;2023-03-03T10:44:36;19.50;;;9.70;;
68438;SDS011;55421;51.600;5.718;2023-03-03T10:50:41;25.40;;;10.80;;
68438;SDS011;55421;51.600;5.718;2023-03-03T10:56:57;22.60;;;10.10;;
68438;SDS011;55421;51.600;5.718;2023-03-03T10:59:50;22.20;;;9.90;;
68438;SDS011;55421;51.600;5.718;2023-03-03T11:05:31;23.50;;;10.90;;
68438;SDS011;55421;51.600;5.718;2023-03-03T11:08:13;22.00;;;10.20;;
68438;SDS011;55421;51.600;5.718;2023-03-03T11:11:00;24.50;;;10.70;;
68438;SDS011;55421;51.600;5.718;2023-03-03T11:13:47;23.00;;;11.50;;
68438;SDS011;55421;51.600;5.718;2023-03-03T11:16:33;21.30;;;10.70;;
68438;SDS011;55421;51.600;5.718;2023-03-03T11:19:29;17.50;;;9.10;;
68438;SDS011;55421;51.600;5.718;2023-03-03T11:25:00;23.00;;;10.70;;
68438;SDS011;55421;51.600;5.718;2023-03-03T11:27:59;21.40;;;11.20;;
68438;SDS011;55421;51.600;5.718;2023-03-03T11:30:50;21.50;;;10.60;;
68438;SDS011;55421;51.600;5.718;2023-03-03T11:33:26;21.90;;;10.70;;
68438;SDS011;55421;51.600;5.718;2023-03-03T11:36:10;22.00;;;11.00;;
68438;SDS011;55421;51.600;5.718;2023-03-03T11:41:41;20.20;;;9.00;;
68438;SDS011;55421;51.600;5.718;2023-03-03T11:44:37;20.60;;;10.20;;
68438;SDS011;55421;51.600;5.718;2023-03-03T11:47:26;24.40;;;12.00;;
68438;SDS011;55421;51.600;5.718;2023-03-03T11:50:01;21.90;;;11.10;;
68438;SDS011;55421;51.600;5.718;2023-03-03T11:55:26;20.70;;;9.90;;
68438;SDS011;55421;51.600;5.718;2023-03-03T11:58:19;22.20;;;10.20;;
68438;SDS011;55421;51.600;5.718;2023-03-03T12:04:02;19.20;;;10.80;;
68438;SDS011;55421;51.600;5.718;2023-03-03T12:06:51;22.80;;;10.60;;
68438;SDS011;55421;51.600;5.718;2023-03-03T12:12:29;18.80;;;9.30;;
68438;SDS011;55421;51.600;5.718;2023-03-03T12:15:32;18.70;;;9.60;;
68438;SDS011;55421;51.600;5.718;2023-03-03T12:24:18;18.90;;;10.00;;
68438;SDS011;55421;51.600;5.718;2023-03-03T12:38:37;17.40;;;8.50;;
68438;SDS011;55421;51.600;5.718;2023-03-03T12:41:20;17.50;;;9.10;;
68438;SDS011;55421;51.600;5.718;2023-03-03T12:44:07;18.80;;;9.80;;
68438;SDS011;55421;51.600;5.718;2023-03-03T12:46:43;17.10;;;9.50;;
68438;SDS011;55421;51.600;5.718;2023-03-03T12:49:16;18.10;;;9.50;;
68438;SDS011;55421;51.600;5.718;2023-03-03T12:58:07;18.60;;;9.90;;
68438;SDS011;55421;51.600;5.718;2023-03-03T13:03:52;18.70;;;9.40;;
68438;SDS011;55421;51.600;5.718;2023-03-03T13:06:27;18.00;;;9.30;;
68438;SDS011;55421;51.600;5.718;2023-03-03T13:09:17;15.90;;;8.40;;
68438;SDS011;55421;51.600;5.718;2023-03-03T13:26:54;15.70;;;8.60;;
68438;SDS011;55421;51.600;5.718;2023-03-03T13:29:59;13.30;;;7.50;;
68438;SDS011;55421;51.600;5.718;2023-03-03T13:32:42;15.70;;;8.60;;
68438;SDS011;55421;51.600;5.718;2023-03-03T13:35:40;14.30;;;7.70;;
68438;SDS011;55421;51.600;5.718;2023-03-03T13:38:22;22.10;;;8.50;;
68438;SDS011;55421;51.600;5.718;2023-03-03T13:41:19;15.00;;;8.00;;
68438;SDS011;55421;51.600;5.718;2023-03-03T13:46:41;14.30;;;8.00;;
68438;SDS011;55421;51.600;5.718;2023-03-03T13:49:43;16.90;;;7.70;;
68438;SDS011;55421;51.600;5.718;2023-03-03T13:52:47;16.00;;;7.40;;
68438;SDS011;55421;51.600;5.718;2023-03-03T13:55:31;13.20;;;7.90;;
68438;SDS011;55421;51.600;5.718;2023-03-03T14:01:00;13.50;;;7.50;;
68438;SDS011;55421;51.600;5.718;2023-03-03T14:04:28;10.00;;;6.40;;
68438;SDS011;55421;51.600;5.718;2023-03-03T14:07:41;12.50;;;6.90;;
68438;SDS011;55421;51.600;5.718;2023-03-03T14:10:25;13.50;;;7.10;;
68438;SDS011;55421;51.600;5.718;2023-03-03T14:13:08;12.60;;;7.30;;
68438;SDS011;55421;51.600;5.718;2023-03-03T14:21:10;11.80;;;7.20;;
68438;SDS011;55421;51.600;5.718;2023-03-03T14:26:09;13.60;;;7.20;;
68438;SDS011;55421;51.600;5.718;2023-03-03T14:28:46;12.10;;;5.80;;
68438;SDS011;55421;51.600;5.718;2023-03-03T14:34:01;10.00;;;5.50;;
68438;SDS011;55421;51.600;5.718;2023-03-03T14:36:41;11.90;;;5.20;;
68438;SDS011;55421;51.600;5.718;2023-03-03T14:39:33;9.70;;;4.80;;
68438;SDS011;55421;51.600;5.718;2023-03-03T14:42:13;11.80;;;5.00;;
68438;SDS011;55421;51.600;5.718;2023-03-03T14:44:56;8.40;;;5.10;;
68438;SDS011;55421;51.600;5.718;2023-03-03T14:47:25;10.10;;;5.10;;
68438;SDS011;55421;51.600;5.718;2023-03-03T14:49:55;6.20;;;4.50;;
68438;SDS011;55421;51.600;5.718;2023-03-03T14:52:32;11.20;;;4.80;;
68438;SDS011;55421;51.600;5.718;2023-03-03T14:55:01;8.20;;;4.70;;
68438;SDS011;55421;51.600;5.718;2023-03-03T14:57:48;7.70;;;4.70;;
68438;SDS011;55421;51.600;5.718;2023-03-03T15:03:02;9.10;;;4.50;;
68438;SDS011;55421;51.600;5.718;2023-03-03T15:05:48;7.20;;;4.60;;
68438;SDS011;55421;51.600;5.718;2023-03-03T15:08:26;6.70;;;4.30;;
68438;SDS011;55421;51.600;5.718;2023-03-03T15:13:42;6.00;;;4.00;;
68438;SDS011;55421;51.600;5.718;2023-03-03T15:16:25;9.70;;;4.60;;
68438;SDS011;55421;51.600;5.718;2023-03-03T15:21:30;7.80;;;5.00;;
68438;SDS011;55421;51.600;5.718;2023-03-03T15:24:16;9.40;;;4.40;;
68438;SDS011;55421;51.600;5.718;2023-03-03T15:27:05;7.90;;;4.80;;
68438;SDS011;55421;51.600;5.718;2023-03-03T15:29:53;6.60;;;4.70;;
68438;SDS011;55421;51.600;5.718;2023-03-03T15:32:45;7.20;;;4.40;;
68438;SDS011;55421;51.600;5.718;2023-03-03T15:41:18;5.50;;;4.10;;
68438;SDS011;55421;51.600;5.718;2023-03-03T15:44:21;6.40;;;4.20;;
68438;SDS011;55421;51.600;5.718;2023-03-03T15:50:05;5.80;;;3.90;;
68438;SDS011;55421;51.600;5.718;2023-03-03T15:59:50;10.00;;;5.10;;
68438;SDS011;55421;51.600;5.718;2023-03-03T16:02:06;6.40;;;4.30;;
68438;SDS011;55421;51.600;5.718;2023-03-03T16:05:06;8.10;;;5.50;;
68438;SDS011;55421;51.600;5.718;2023-03-03T16:07:55;8.60;;;5.20;;
68438;SDS011;55421;51.600;5.718;2023-03-03T16:11:07;8.20;;;5.10;;
68438;SDS011;55421;51.600;5.718;2023-03-03T16:19:27;6.40;;;3.90;;
68438;SDS011;55421;51.600;5.718;2023-03-03T16:25:00;5.60;;;4.00;;
68438;SDS011;55421;51.600;5.718;2023-03-03T16:28:05;4.50;;;3.40;;
68438;SDS011;55421;51.600;5.718;2023-03-03T16:31:08;8.90;;;4.60;;
68438;SDS011;55421;51.600;5.718;2023-03-03T16:33:45;7.20;;;4.70;;
68438;SDS011;55421;51.600;5.718;2023-03-03T16:39:08;3.80;;;2.30;;
68438;SDS011;55421;51.600;5.718;2023-03-03T16:50:26;3.70;;;2.10;;
68438;SDS011;55421;51.600;5.718;2023-03-03T17:02:19;4.20;;;2.70;;
68438;SDS011;55421;51.600;5.718;2023-03-03T17:04:58;7.40;;;3.00;;
68438;SDS011;55421;51.600;5.718;2023-03-03T17:08:02;5.20;;;2.90;;
68438;SDS011;55421;51.600;5.718;2023-03-03T17:10:51;5.30;;;2.60;;
68438;SDS011;55421;51.600;5.718;2023-03-03T17:22:19;5.90;;;2.80;;
68438;SDS011;55421;51.600;5.718;2023-03-03T17:25:05;3.30;;;2.60;;
68438;SDS011;55421;51.600;5.718;2023-03-03T17:36:35;4.40;;;3.60;;
68438;SDS011;55421;51.600;5.718;2023-03-03T17:39:26;5.90;;;3.30;;
68438;SDS011;55421;51.600;5.718;2023-03-03T17:45:13;5.60;;;3.40;;
68438;SDS011;55421;51.600;5.718;2023-03-03T17:59:47;3.90;;;2.70;;
68438;SDS011;55421;51.600;5.718;2023-03-03T18:05:46;3.80;;;2.50;;
68438;SDS011;55421;51.600;5.718;2023-03-03T18:15:00;4.00;;;2.70;;
68438;SDS011;55421;51.600;5.718;2023-03-03T18:17:48;4.70;;;2.90;;
68438;SDS011;55421;51.600;5.718;2023-03-03T18:21:15;4.20;;;2.60;;
68438;SDS011;55421;51.600;5.718;2023-03-03T18:23:48;2.30;;;2.00;;
68438;SDS011;55421;51.600;5.718;2023-03-03T18:26:41;3.20;;;2.60;;
68438;SDS011;55421;51.600;5.718;2023-03-03T18:42:43;2.40;;;2.20;;
68438;SDS011;55421;51.600;5.718;2023-03-03T18:48:11;2.70;;;2.10;;
68438;SDS011;55421;51.600;5.718;2023-03-03T18:50:43;4.50;;;2.30;;
68438;SDS011;55421;51.600;5.718;2023-03-03T18:53:26;7.80;;;2.20;;
68438;SDS011;55421;51.600;5.718;2023-03-03T18:56:00;4.30;;;2.50;;
68438;SDS011;55421;51.600;5.718;2023-03-03T18:58:32;3.50;;;2.20;;
68438;SDS011;55421;51.600;5.718;2023-03-03T19:01:12;3.40;;;2.10;;
68438;SDS011;55421;51.600;5.718;2023-03-03T19:04:11;2.30;;;1.90;;
68438;SDS011;55421;51.600;5.718;2023-03-03T19:09:18;2.50;;;1.70;;
68438;SDS011;55421;51.600;5.718;2023-03-03T19:12:09;5.90;;;2.20;;
68438;SDS011;55421;51.600;5.718;2023-03-03T19:14:43;4.50;;;2.20;;
68438;SDS011;55421;51.600;5.718;2023-03-03T19:20:08;4.60;;;2.20;;
68438;SDS011;55421;51.600;5.718;2023-03-03T19:22:46;3.40;;;1.90;;
68438;SDS011;55421;51.600;5.718;2023-03-03T19:25:26;6.90;;;2.20;;
68438;SDS011;55421;51.600;5.718;2023-03-03T19:28:16;4.50;;;2.30;;
68438;SDS011;55421;51.600;5.718;2023-03-03T19:31:16;7.00;;;1.90;;
68438;SDS011;55421;51.600;5.718;2023-03-03T19:34:14;4.00;;;1.60;;